Accueil
METAR-TAF:

METAR-TAF

Aéroports :

Aéroport du Touquet-Côte d'Opale

Le Touquet, France

latitude: 50-30-53N, longitude: 001-37-39E, altitude: 6 m

Observation

Le bulletin a été fait il y a 40 minutes, à 22:30 UTC
Vent 11 kt de est/sud-est
Température 3°C
Humidité 100%
Pression 1016 hPa
Visibilité: 5000 m
brume

METAR: LFAT 252230Z AUTO 12011KT 5000 BR OVC003/// 03/03 Q1016

Heure: 00:10 (23:10 UTC)

Prévision

Le bulletin a été fait il y a 9 heures et 10 minutes, à 14:00 UTC
Prévision valable du 25 à 15 UTC au 25 à 24 UTC
Vent 10 kt de est/sud-est
Visibilité: 4000 m
Ciel couvert à une hauteur de 200 ft
brume
Temporairement
du 25 à 15 UTC au 25 à 24 UTC
Visibilité: 0500 m
brouillard

TAF: LFAT 251400Z 2515/2524 12010KT 4000 BR OVC002 TEMPO 2515/2524 0500 FG VV///

Observations et prévisions météorologiques de plus de 4000 aéroports (messages METAR et TAF).

Les stations disponibles sont représentées par des disques jaunes et rouges sur la carte.

Passer la souris dessus pour voir le nom de la station.

Cliquer dessus pour voir les observations et prévisions météorologiques.

Pour changer de carte: cliquez sur les boutons verts avec une croix noire pour zoomer, sur le bouton vert avec un tiret pour effectuer un zoom arrière, ou sur les flèches vertes pour les cartes adjacentes.


METAR-TAF: